| time (UTC) | temp C | wind direction | speed KPH | gust KPH | rain 1hr cm | rain 24hr cm | rain mn cm | humidity % | barometer mb |
| 20260906210009 | 33 | 340 | 0.0 | 1.6 | 0.00 | 0.00 | 0.00 | 35 | 1004.0 |
| 20260906204600 | 33 | 340 | 0.0 | 1.6 | 0.00 | 0.00 | 0.00 | 36 | 1004.0 |
| 20260906203052 | 33 | 349 | 19.3 | 27.4 | 0.00 | 0.00 | 0.00 | 37 | 1004.3 |
| 20260906201552 | 33 | 235 | 0.0 | 0.0 | 0.00 | 0.00 | 0.00 | 37 | 1004.5 |
| 20260906200152 | 33 | 267 | 0.0 | 22.5 | 0.00 | 0.00 | 0.00 | 37 | 1004.6 |
| 20260906194602 | 33 | 143 | 0.0 | 3.2 | 0.00 | 0.00 | 0.00 | 36 | 1004.7 |
| 20260906193045 | 33 | 143 | 0.0 | 1.6 | 0.00 | 0.00 | 0.00 | 37 | 1005.0 |
| 20260906191543 | 33 | 159 | 0.0 | 1.6 | 0.00 | 0.00 | 0.00 | 37 | 1005.1 |
| 20260906190040 | 33 | 124 | 0.0 | 1.6 | 0.00 | 0.00 | 0.00 | 37 | 1005.3 |
| 20260906184526 | 32 | 69 | 1.6 | 12.9 | 0.00 | 0.00 | 0.00 | 36 | 1005.5 |
| 20260906183030 | 32 | 359 | 0.0 | 6.4 | 0.00 | 0.00 | 0.00 | 38 | 1005.9 |
| 20260906181534 | 32 | 360 | 1.6 | 9.7 | 0.00 | 0.00 | 0.00 | 38 | 1006.2 |
| 20260906180026 | 31 | 271 | 4.8 | 11.3 | 0.00 | 0.00 | 0.00 | 41 | 1006.4 |
| 20260906174514 | 31 | 280 | 0.0 | 1.6 | 0.00 | 0.00 | 0.00 | 42 | 1006.8 |
| 20260906173009 | 30 | 287 | 0.0 | 1.6 | 0.00 | 0.00 | 0.00 | 43 | 1007.1 |
| 20260906171507 | 29 | 269 | 0.0 | 1.6 | 0.00 | 0.00 | 0.00 | 44 | 1007.5 |
| 20260906170003 | 28 | 287 | 0.0 | 6.4 | 0.00 | 0.00 | 0.00 | 45 | 1007.7 |
| 20260906164600 | 28 | 256 | 0.0 | 1.6 | 0.00 | 0.00 | 0.00 | 48 | 1007.9 |
| 20260906163045 | 27 | 248 | 0.0 | 0.0 | 0.00 | 0.00 | 0.00 | 49 | 1008.0 |
| 20260906161559 | 26 | 265 | 0.0 | 0.0 | 0.00 | 0.00 | 0.00 | 52 | 1008.3 |
| 20260906160038 | 25 | 252 | 0.0 | 1.6 | 0.00 | 0.00 | 0.00 | 55 | 1008.3 |
| 20260906154538 | 24 | 255 | 0.0 | 0.0 | 0.00 | 0.00 | 0.00 | 57 | 1008.3 |
| 20260906153041 | 23 | 257 | 0.0 | 0.0 | 0.00 | 0.00 | 0.00 | 61 | 1008.4 |
| 20260906151527 | 22 | 277 | 0.0 | 0.0 | 0.00 | 0.00 | 0.00 | 63 | 1008.6 |
| 20260906150024 | 22 | 253 | 0.0 | 1.6 | 0.00 | 0.00 | 0.00 | 65 | 1008.7 |
| 20260906144524 | 21 | 243 | 0.0 | 1.6 | 0.00 | 0.00 | 0.00 | 68 | 1009.0 |
| 20260906143101 | 21 | 255 | 0.0 | 0.0 | 0.00 | 0.00 | 0.00 | 71 | 1009.1 |
| 20260906143001 | 21 | 254 | 0.0 | 0.0 | 0.00 | 0.00 | 0.00 | 71 | 1009.0 |
| 20260906141617 | 20 | 255 | 0.0 | 0.0 | 0.00 | 0.00 | 0.00 | 77 | 1009.1 |
| 20260906140044 | 19 | 255 | 0.0 | 0.0 | 0.00 | 0.00 | 0.00 | 79 | 1009.2 |
| 20260906134548 | 18 | 254 | 0.0 | 0.0 | 0.00 | 0.00 | 0.00 | 83 | 1009.5 |
| 20260906133050 | 17 | 255 | 0.0 | 0.0 | 0.00 | 0.00 | 0.00 | 85 | 1009.4 |
| 20260906131559 | 16 | 254 | 0.0 | 0.0 | 0.00 | 0.00 | 0.00 | 86 | 1009.4 |
| 20260906130053 | -17 | 0.0 | 0.0 | 0.00 | 0.00 | 0.00 | 1009.5 | ||
| 20260906124536 | -17 | 0.0 | 0.0 | 0.00 | 0.00 | 0.00 | 1009.4 | ||
| 20260906123036 | -17 | 0.0 | 0.0 | 0.00 | 0.00 | 0.00 | 1009.5 | ||
| 20260906121535 | -17 | 0.0 | 0.0 | 0.00 | 0.00 | 0.00 | 1009.2 | ||
| 20260906120011 | -17 | 0.0 | 0.0 | 0.00 | 0.00 | 0.00 | 1009.2 | ||
| 20260906114515 | -17 | 0.0 | 0.0 | 0.00 | 0.00 | 0.00 | 1009.1 | ||
| 20260906113003 | -17 | 0.0 | 0.0 | 0.00 | 0.00 | 0.00 | 1009.0 | ||
| 20260906111559 | -17 | 0.0 | 0.0 | 0.00 | 0.00 | 0.00 | 1008.9 | ||
| 20260906110054 | -17 | 0.0 | 0.0 | 0.00 | 0.00 | 0.00 | 1008.8 | ||
| 20260906104551 | -17 | 0.0 | 0.0 | 0.00 | 0.00 | 0.00 | 1008.6 | ||
| 20260906103049 | 16 | 255 | 0.0 | 0.0 | 0.00 | 0.00 | 0.00 | 86 | 1008.7 |
| 20260906101546 | 17 | 255 | 0.0 | 0.0 | 0.00 | 0.00 | 0.00 | 86 | 1008.7 |
| 20260906100035 | 17 | 259 | 0.0 | 0.0 | 0.00 | 0.00 | 0.00 | 85 | 1008.7 |
| 20260906094528 | 17 | 258 | 0.0 | 0.0 | 0.00 | 0.00 | 0.00 | 84 | 1008.6 |
| 20260906093025 | 17 | 259 | 0.0 | 0.0 | 0.00 | 0.00 | 0.00 | 82 | 1008.5 |
| 20260906091526 | 18 | 259 | 0.0 | 0.0 | 0.00 | 0.00 | 0.00 | 81 | 1008.3 |
| 20260906090125 | 18 | 258 | 0.0 | 0.0 | 0.00 | 0.00 | 0.00 | 79 | 1008.2 |
| 20260906084522 | 18 | 261 | 0.0 | 0.0 | 0.00 | 0.00 | 0.00 | 78 | 1007.8 |
| 20260906083020 | 18 | 262 | 0.0 | 0.0 | 0.00 | 0.00 | 0.00 | 78 | 1007.6 |
| 20260906081521 | 18 | 261 | 0.0 | 1.6 | 0.00 | 0.00 | 0.00 | 80 | 1007.5 |
| 20260906080059 | 18 | 262 | 0.0 | 0.0 | 0.00 | 0.00 | 0.00 | 81 | 1007.8 |
| 20260906074556 | 18 | 260 | 0.0 | 0.0 | 0.00 | 0.00 | 0.00 | 80 | 1007.7 |
| 20260906073044 | 18 | 261 | 0.0 | 0.0 | 0.00 | 0.00 | 0.00 | 80 | 1008.0 |
| 20260906071542 | 18 | 252 | 0.0 | 0.0 | 0.00 | 0.00 | 0.00 | 80 | 1008.0 |
| 20260906070040 | 19 | 258 | 0.0 | 1.6 | 0.00 | 0.00 | 0.00 | 79 | 1007.9 |
| 20260906064538 | 19 | 251 | 0.0 | 1.6 | 0.00 | 0.00 | 0.00 | 77 | 1008.2 |
| 20260906063035 | 20 | 263 | 0.0 | 1.6 | 0.00 | 0.00 | 0.00 | 76 | 1008.1 |
| 20260906061538 | 20 | 266 | 0.0 | 1.6 | 0.00 | 0.00 | 0.00 | 76 | 1008.2 |
| 20260906060032 | 20 | 257 | 0.0 | 0.0 | 0.00 | 0.00 | 0.00 | 75 | 1007.9 |
| 20260906054531 | 20 | 262 | 0.0 | 6.4 | 0.00 | 0.00 | 0.00 | 75 | 1007.7 |
| 20260906053018 | 20 | 254 | 11.3 | 20.9 | 0.00 | 0.00 | 0.00 | 74 | 1007.3 |
| 20260906051518 | 20 | 297 | 0.0 | 0.0 | 0.00 | 0.00 | 0.00 | 76 | 1007.3 |
| 20260906050015 | 20 | 280 | 0.0 | 1.6 | 0.00 | 0.00 | 0.00 | 76 | 1007.1 |
| 20260906044518 | 20 | 278 | 0.0 | 1.6 | 0.00 | 0.00 | 0.00 | 75 | 1006.8 |
| 20260906043026 | 21 | 291 | 0.0 | 1.6 | 0.00 | 0.00 | 0.00 | 68 | 1007.0 |
| 20260906041514 | 21 | 280 | 0.0 | 1.6 | 0.00 | 0.00 | 0.00 | 66 | 1007.2 |
| 20260906040013 | 21 | 266 | 0.0 | 14.5 | 0.00 | 0.00 | 0.00 | 72 | 1007.5 |
| 20260906034520 | 20 | 113 | 0.0 | 0.0 | 0.00 | 0.00 | 0.00 | 80 | 1007.6 |
| 20260906033011 | 20 | 127 | 4.8 | 12.9 | 0.00 | 0.00 | 0.00 | 79 | 1007.6 |
| 20260906031514 | 20 | 127 | 0.0 | 0.0 | 0.00 | 0.00 | 0.00 | 79 | 1007.1 |
| 20260906030054 | 20 | 136 | 0.0 | 4.8 | 0.00 | 0.00 | 0.00 | 78 | 1006.8 |
| 20260906024554 | 20 | 104 | 0.0 | 1.6 | 0.00 | 0.00 | 0.00 | 77 | 1006.7 |
| 20260906023038 | 20 | 119 | 0.0 | 9.7 | 0.00 | 0.00 | 0.00 | 78 | 1006.6 |
| 20260906021542 | 20 | 107 | 16.1 | 22.5 | 0.00 | 0.00 | 0.00 | 75 | 1006.9 |
| 20260906020037 | 21 | 167 | 0.0 | 3.2 | 0.00 | 0.00 | 0.00 | 69 | 1007.4 |
| 20260906014542 | 22 | 109 | 0.0 | 1.6 | 0.00 | 0.00 | 0.00 | 68 | 1007.0 |
| 20260906013034 | 22 | 174 | 14.5 | 37.0 | 0.00 | 0.00 | 0.00 | 65 | 1006.7 |
| 20260906011533 | 24 | 195 | 24.1 | 38.6 | 0.00 | 0.00 | 0.00 | 61 | 1006.2 |
| 20260906010036 | 25 | 119 | 8.0 | 24.1 | 0.00 | 0.00 | 0.00 | 56 | 1005.0 |
| 20260906004532 | 26 | 159 | 16.1 | 29.0 | 0.00 | 0.00 | 0.00 | 53 | 1005.3 |
| 20260906003021 | 27 | 197 | 12.9 | 33.8 | 0.00 | 0.00 | 0.00 | 53 | 1005.1 |
| 20260906001539 | 26 | 198 | 16.1 | 33.8 | 0.00 | 0.00 | 0.00 | 55 | 1005.2 |
| 20260906000019 | 27 | 113 | 25.7 | 38.6 | 0.00 | 0.00 | 0.00 | 51 | 1004.9 |
| 20260905234518 | 30 | 187 | 17.7 | 33.8 | 0.00 | 0.00 | 0.00 | 46 | 1003.8 |
| 20260905233018 | 35 | 229 | 0.0 | 3.2 | 0.00 | 0.00 | 0.00 | 35 | 1003.1 |
| 20260905231522 | 36 | 172 | 0.0 | 1.6 | 0.00 | 0.00 | 0.00 | 33 | 1002.9 |
| 20260905230014 | 37 | 201 | 0.0 | 1.6 | 0.00 | 0.00 | 0.00 | 21 | 1002.9 |
| 20260905224513 | 39 | 273 | 0.0 | 1.6 | 0.00 | 0.00 | 0.00 | 20 | 1002.6 |
| 20260905223058 | 38 | 274 | 0.0 | 1.6 | 0.00 | 0.00 | 0.00 | 20 | 1002.5 |
| 20260905221600 | 37 | 274 | 0.0 | 0.0 | 0.00 | 0.00 | 0.00 | 21 | 1003.0 |
| 20260905220058 | 37 | 271 | 0.0 | 1.6 | 0.00 | 0.00 | 0.00 | 22 | 1003.0 |
| 20260905214551 | 37 | 267 | 0.0 | 0.0 | 0.00 | 0.00 | 0.00 | 23 | 1003.2 |
| 20260905213050 | 37 | 259 | 0.0 | 1.6 | 0.00 | 0.00 | 0.00 | 24 | 1003.5 |
| 20260905211548 | 37 | 160 | 0.0 | 1.6 | 0.00 | 0.00 | 0.00 | 23 | 1003.8 |